Time;durP1;ratioP1;P1;durP2;ratioP2;P2;SDS_P1;SDS_P2;PMS_P1;PMS_P2;Temp;Humidity;BMP_temperature;BMP_pressure;BME280_temperature;BME280_humidity;BME280_pressure;Samples;Min_cycle;Max_cycle;Signal;HPM_P1;HPM_P2
2020/12/11 00:00:20;;;;;;;19.95;10.82;;;-0.90;57.60;;;;;;5093425;28;20079;-78
2020/12/11 00:02:46;;;;;;;20.35;9.98;;;-0.90;57.40;;;;;;5097487;28;20537;-79
2020/12/11 00:05:13;;;;;;;21.77;10.32;;;-0.90;57.40;;;;;;5094662;28;20051;-79
2020/12/11 00:07:40;;;;;;;20.08;9.50;;;-0.90;57.50;;;;;;5093192;28;20485;-78
2020/12/11 00:10:09;;;;;;;17.60;10.02;;;-1.00;57.50;;;;;;5093280;28;20086;-80
2020/12/11 00:12:36;;;;;;;18.35;9.50;;;-1.00;57.50;;;;;;5094281;28;20466;-79
2020/12/11 00:15:03;;;;;;;19.65;9.30;;;-1.00;57.40;;;;;;5094319;28;20040;-79
2020/12/11 00:17:29;;;;;;;17.45;8.82;;;-1.00;57.30;;;;;;5092764;28;20076;-79
2020/12/11 00:19:55;;;;;;;18.23;9.95;;;-1.00;57.40;;;;;;5110157;28;20063;-79
2020/12/11 00:22:22;;;;;;;18.50;9.80;;;-1.00;57.40;;;;;;5093427;28;20437;-80
2020/12/11 00:24:50;;;;;;;18.33;9.75;;;-1.10;57.60;;;;;;5093310;28;20403;-78
2020/12/11 00:27:16;;;;;;;18.58;9.60;;;-1.10;57.50;;;;;;5094007;28;20059;-78
2020/12/11 00:29:42;;;;;;;21.00;10.30;;;-1.10;57.50;;;;;;5094027;28;20052;-79
2020/12/11 00:32:08;;;;;;;17.35;9.80;;;-1.10;57.50;;;;;;5094243;28;20100;-79
2020/12/11 00:34:35;;;;;;;21.67;10.05;;;-1.10;57.50;;;;;;5075629;28;20059;-79
2020/12/11 00:37:01;;;;;;;17.15;9.45;;;-1.20;57.70;;;;;;5092399;28;20056;-78
2020/12/11 00:39:27;;;;;;;16.45;9.50;;;-1.10;57.70;;;;;;5092867;28;20404;-79
2020/12/11 00:41:55;;;;;;;20.20;10.52;;;-1.10;57.60;;;;;;5092631;28;20037;-78
2020/12/11 00:44:22;;;;;;;18.55;8.68;;;-1.10;57.70;;;;;;5109417;28;20499;-79
2020/12/11 00:46:49;;;;;;;17.23;9.48;;;-1.20;57.70;;;;;;5092165;28;20046;-79
2020/12/11 00:49:15;;;;;;;19.00;9.32;;;-1.20;57.80;;;;;;5092538;28;20039;-78
2020/12/11 00:51:42;;;;;;;25.73;11.65;;;-1.20;57.80;;;;;;5092772;28;20032;-78
2020/12/11 00:54:09;;;;;;;16.92;9.60;;;-1.10;57.90;;;;;;5075531;28;20036;-78
2020/12/11 00:56:35;;;;;;;20.00;9.35;;;-1.10;58.00;;;;;;5093710;28;20036;-79
2020/12/11 00:59:01;;;;;;;19.83;9.57;;;-1.10;58.10;;;;;;5093622;28;20117;-79
2020/12/11 01:01:27;;;;;;;18.58;9.45;;;-1.10;58.10;;;;;;5093751;28;20047;-79
2020/12/11 01:03:52;;;;;;;18.83;9.38;;;-1.10;58.20;;;;;;5093540;28;20507;-78
2020/12/11 01:06:18;;;;;;;18.10;9.63;;;-1.10;58.20;;;;;;5093588;28;20127;-79
2020/12/11 01:08:44;;;;;;;16.80;9.50;;;-1.10;58.30;;;;;;5093789;28;20380;-79
2020/12/11 01:11:12;;;;;;;14.68;8.55;;;-1.10;58.50;;;;;;5093555;28;20067;-79
2020/12/11 01:13:38;;;;;;;16.55;9.13;;;-1.10;58.30;;;;;;5093900;28;20032;-78
2020/12/11 01:16:06;;;;;;;21.25;9.70;;;-1.20;58.50;;;;;;5097202;28;20122;-79
2020/12/11 01:18:32;;;;;;;16.88;9.80;;;-1.20;58.50;;;;;;5093346;28;20067;-79
2020/12/11 01:20:58;;;;;;;18.75;9.90;;;-1.10;58.60;;;;;;5092107;28;20036;-79
2020/12/11 01:23:24;;;;;;;18.40;8.85;;;-1.20;58.70;;;;;;5093399;28;20031;-77
2020/12/11 01:25:50;;;;;;;16.40;8.75;;;-1.20;58.60;;;;;;5093929;28;20032;-80
2020/12/11 01:28:17;;;;;;;19.23;9.50;;;-1.20;58.80;;;;;;5092487;28;20040;-79
2020/12/11 01:30:43;;;;;;;16.63;8.70;;;-1.20;58.80;;;;;;5093279;28;20032;-79
2020/12/11 01:33:08;;;;;;;17.73;9.10;;;-1.20;58.80;;;;;;5092410;28;20028;-79
2020/12/11 01:35:34;;;;;;;18.92;9.55;;;-1.20;58.60;;;;;;5093822;28;20399;-81
2020/12/11 01:38:00;;;;;;;19.65;10.40;;;-1.20;58.60;;;;;;5093423;28;20055;-78
2020/12/11 01:40:32;;;;;;;15.90;9.43;;;-1.20;58.60;;;;;;5093247;28;20040;-80
2020/12/11 01:42:58;;;;;;;18.70;10.48;;;-1.20;58.50;;;;;;5093287;28;20036;-80
2020/12/11 01:45:24;;;;;;;21.15;10.40;;;-1.20;58.50;;;;;;5093595;28;20040;-80
2020/12/11 01:47:50;;;;;;;16.42;9.43;;;-1.20;58.50;;;;;;5093576;28;20095;-79
2020/12/11 01:50:19;;;;;;;18.75;9.50;;;-1.20;58.60;;;;;;5093487;28;20040;-80
2020/12/11 01:52:47;;;;;;;20.13;9.63;;;-1.20;58.60;;;;;;5093145;28;20491;-79
2020/12/11 01:55:13;;;;;;;19.98;9.88;;;-1.20;58.60;;;;;;5093097;28;20036;-79
2020/12/11 01:58:00;;;;;;;13.68;8.43;;;-1.30;58.50;;;;;;5093271;28;20039;-78
2020/12/11 02:00:27;;;;;;;19.15;9.93;;;-1.40;58.50;;;;;;5091323;28;20048;-79
2020/12/11 02:03:04;;;;;;;20.77;10.32;;;-1.40;58.40;;;;;;5075211;28;20040;-79
2020/12/11 02:05:32;;;;;;;17.20;8.70;;;-1.40;58.50;;;;;;5093041;28;20085;-80
2020/12/11 02:08:01;;;;;;;17.45;9.85;;;-1.30;58.50;;;;;;5093036;28;20028;-79
2020/12/11 02:10:27;;;;;;;17.92;9.52;;;-1.30;58.50;;;;;;5093133;28;20036;-78
2020/12/11 02:12:53;;;;;;;16.25;8.50;;;-1.30;58.70;;;;;;5092803;28;20036;-78
2020/12/11 02:15:19;;;;;;;15.75;9.18;;;-1.30;58.50;;;;;;5092550;28;20024;-79
2020/12/11 02:17:45;;;;;;;16.50;8.57;;;-1.40;58.60;;;;;;5092697;28;20073;-80
2020/12/11 02:20:11;;;;;;;16.60;8.85;;;-1.40;58.60;;;;;;5093341;28;20024;-78
2020/12/11 02:22:41;;;;;;;17.13;9.70;;;-1.30;58.80;;;;;;5095553;28;20476;-78
2020/12/11 02:25:07;;;;;;;17.05;8.98;;;-1.30;58.70;;;;;;5096006;28;20043;-80
2020/12/11 02:27:33;;;;;;;16.48;8.75;;;-1.30;58.90;;;;;;5096340;28;20081;-80
2020/12/11 02:30:02;;;;;;;16.92;8.82;;;-1.30;58.90;;;;;;5102698;28;20032;-80
2020/12/11 02:32:28;;;;;;;16.37;8.77;;;-1.30;58.90;;;;;;5095200;28;20081;-80
2020/12/11 02:34:54;;;;;;;20.80;10.30;;;-1.30;59.00;;;;;;5096267;28;20032;-80
2020/12/11 02:37:20;;;;;;;16.20;8.65;;;-1.30;58.90;;;;;;5096299;28;20090;-79
2020/12/11 02:39:45;;;;;;;19.50;10.48;;;-1.30;59.00;;;;;;5095744;28;20079;-78
2020/12/11 02:42:11;;;;;;;17.65;9.32;;;-1.30;59.10;;;;;;5094617;28;20028;-78
2020/12/11 02:44:37;;;;;;;19.77;9.63;;;-1.30;59.00;;;;;;5096033;28;20032;-79
2020/12/11 02:47:03;;;;;;;18.50;9.88;;;-1.30;59.10;;;;;;5095981;28;20130;-79
2020/12/11 02:49:29;;;;;;;16.92;8.75;;;-1.30;59.10;;;;;;5096171;28;20038;-79
2020/12/11 02:51:55;;;;;;;15.90;9.93;;;-1.30;59.20;;;;;;5095584;28;20115;-79
2020/12/11 02:54:21;;;;;;;20.13;9.70;;;-1.30;59.40;;;;;;5094762;28;20398;-78
2020/12/11 02:56:47;;;;;;;12.63;8.05;;;-1.30;59.40;;;;;;5095982;28;20040;-79
2020/12/11 02:59:13;;;;;;;13.98;8.30;;;-1.30;59.30;;;;;;5095821;28;20143;-79
2020/12/11 03:01:39;;;;;;;16.25;10.02;;;-1.30;59.30;;;;;;5095949;28;20067;-79
2020/12/11 03:04:05;;;;;;;15.18;9.25;;;-1.30;59.40;;;;;;5095672;28;20031;-79
2020/12/11 03:06:32;;;;;;;17.73;9.50;;;-1.30;59.50;;;;;;5095649;28;20032;-78
2020/12/11 03:08:59;;;;;;;18.58;8.90;;;-1.20;59.50;;;;;;5111679;28;20129;-78
2020/12/11 03:11:26;;;;;;;19.85;9.43;;;-1.20;59.50;;;;;;5095659;28;20048;-79
2020/12/11 03:13:52;;;;;;;20.73;9.85;;;-1.20;59.50;;;;;;5094550;28;20430;-79
2020/12/11 03:16:18;;;;;;;17.80;10.48;;;-1.20;59.60;;;;;;5095959;28;20036;-79
2020/12/11 03:18:47;;;;;;;19.55;9.80;;;-1.30;59.50;;;;;;5095274;28;20047;-79
2020/12/11 03:21:14;;;;;;;18.55;8.98;;;-1.20;59.60;;;;;;5095142;28;20507;-79
2020/12/11 03:23:39;;;;;;;19.92;10.15;;;-1.20;59.60;;;;;;5095621;28;20032;-79
2020/12/11 03:26:06;;;;;;;17.10;8.95;;;-1.20;59.60;;;;;;5094978;28;20039;-79
2020/12/11 03:28:32;;;;;;;16.48;9.27;;;-1.20;59.60;;;;;;5095087;28;20430;-79
2020/12/11 03:30:58;;;;;;;18.52;9.02;;;-1.20;59.60;;;;;;5094644;28;20031;-80
2020/12/11 03:33:25;;;;;;;18.63;9.63;;;-1.20;59.60;;;;;;5085966;28;20033;-80
2020/12/11 03:35:52;;;;;;;16.90;8.23;;;-1.20;59.70;;;;;;5082852;28;20491;-80
2020/12/11 03:38:18;;;;;;;18.45;9.35;;;-1.20;59.70;;;;;;5094557;28;20622;-81
2020/12/11 03:40:44;;;;;;;19.77;9.57;;;-1.20;59.80;;;;;;5086510;28;20034;-80
2020/12/11 03:43:10;;;;;;;17.25;8.55;;;-1.20;59.80;;;;;;5088006;28;20115;-81
2020/12/11 03:45:35;;;;;;;21.05;10.73;;;-1.20;59.90;;;;;;5091589;28;20064;-85
2020/12/11 03:48:02;;;;;;;15.65;8.60;;;-1.20;60.00;;;;;;5086010;28;20055;-84
2020/12/11 03:50:28;;;;;;;17.63;9.30;;;-1.20;60.00;;;;;;5091091;28;20040;-85
2020/12/11 03:52:53;;;;;;;15.48;9.27;;;-1.20;60.00;;;;;;5082339;28;20430;-80
2020/12/11 03:55:19;;;;;;;14.82;8.90;;;-1.20;60.00;;;;;;5084690;28;20101;-90
2020/12/11 03:57:45;;;;;;;17.48;8.88;;;-1.20;60.00;;;;;;5082461;28;20487;-83
2020/12/11 04:00:11;;;;;;;14.73;9.02;;;-1.20;60.00;;;;;;5078964;28;20127;-80
2020/12/11 04:02:37;;;;;;;17.83;8.88;;;-1.20;60.00;;;;;;5074539;28;20131;-80
2020/12/11 04:05:04;;;;;;;18.85;9.30;;;-1.20;59.90;;;;;;5074308;28;20045;-80
2020/12/11 04:07:30;;;;;;;15.32;9.23;;;-1.20;60.00;;;;;;5074246;28;20041;-80
2020/12/11 04:09:56;;;;;;;19.40;10.60;;;-1.20;60.00;;;;;;5072667;28;20033;-80
2020/12/11 04:12:22;;;;;;;16.70;8.98;;;-1.20;60.00;;;;;;5074151;28;20048;-80
2020/12/11 04:14:48;;;;;;;19.60;9.95;;;-1.20;60.00;;;;;;5074248;28;20075;-84
2020/12/11 04:17:14;;;;;;;20.80;9.90;;;-1.30;59.90;;;;;;5081542;28;20043;-82
2020/12/11 04:19:40;;;;;;;16.98;10.18;;;-1.30;60.00;;;;;;5083239;28;20085;-79
2020/12/11 04:22:06;;;;;;;19.20;9.30;;;-1.20;60.10;;;;;;5082753;28;20438;-81
2020/12/11 04:24:32;;;;;;;17.48;9.93;;;-1.20;60.00;;;;;;5082139;28;20036;-81
2020/12/11 04:26:58;;;;;;;17.08;9.05;;;-1.20;60.10;;;;;;5084849;28;20128;-80
2020/12/11 04:29:24;;;;;;;20.67;9.48;;;-1.20;60.00;;;;;;5090391;28;20131;-79
2020/12/11 04:31:54;;;;;;;15.15;8.80;;;-1.30;59.90;;;;;;5093724;28;20128;-81
2020/12/11 04:34:20;;;;;;;20.48;9.23;;;-1.30;59.90;;;;;;5092711;28;20028;-78
2020/12/11 04:36:53;;;;;;;16.90;9.23;;;-1.30;60.00;;;;;;5093811;28;20455;-80
2020/12/11 04:39:20;;;;;;;17.45;9.05;;;-1.30;60.00;;;;;;5094097;28;20403;-80
2020/12/11 04:41:46;;;;;;;20.48;10.18;;;-1.30;60.00;;;;;;5093686;28;20038;-80
2020/12/11 04:44:12;;;;;;;18.80;10.43;;;-1.30;60.00;;;;;;5092033;28;20043;-80
2020/12/11 04:46:39;;;;;;;20.30;10.27;;;-1.30;60.10;;;;;;5093583;28;20461;-80
2020/12/11 04:49:06;;;;;;;17.98;8.40;;;-1.30;60.00;;;;;;5093774;28;20035;-80
2020/12/11 04:51:33;;;;;;;19.83;9.65;;;-1.30;60.00;;;;;;5108974;28;20031;-80
2020/12/11 04:54:01;;;;;;;18.42;8.55;;;-1.40;59.80;;;;;;5093878;28;20032;-82
2020/12/11 04:56:27;;;;;;;19.25;9.05;;;-1.30;59.80;;;;;;5092979;28;20557;-81
2020/12/11 04:58:54;;;;;;;20.38;10.00;;;-1.40;59.90;;;;;;5099377;28;20173;-82
2020/12/11 05:01:31;;;;;;;18.73;9.82;;;-1.40;59.90;;;;;;5093564;28;20047;-81
2020/12/11 05:03:59;;;;;;;17.05;9.50;;;-1.40;60.00;;;;;;5093371;28;20063;-81
2020/12/11 05:06:25;;;;;;;18.77;9.65;;;-1.40;59.80;;;;;;5093345;28;20032;-79
2020/12/11 05:09:20;;;;;;;14.88;9.57;;;-1.40;59.90;;;;;;5093252;28;20036;-81
2020/12/11 05:11:47;;;;;;;16.75;9.65;;;-1.40;60.00;;;;;;5109226;28;20035;-81
2020/12/11 05:14:24;;;;;;;19.65;10.20;;;-1.30;59.90;;;;;;5093459;28;20495;-80
2020/12/11 05:17:06;;;;;;;15.88;9.40;;;-1.30;60.00;;;;;;5093458;28;20036;-81
2020/12/11 05:19:47;;;;;;;18.30;9.15;;;-1.40;59.80;;;;;;5093324;28;20089;-80
2020/12/11 05:22:13;;;;;;;16.70;9.52;;;-1.40;59.80;;;;;;5093954;28;20036;-80
2020/12/11 05:24:44;;;;;;;18.77;8.88;;;-1.40;59.80;;;;;;5093467;28;20127;-81
2020/12/11 05:27:38;;;;;;;16.23;8.55;;;-1.40;59.80;;;;;;5093426;28;20128;-81
2020/12/11 05:30:07;;;;;;;18.80;9.63;;;-1.40;59.70;;;;;;5093630;28;20399;-81
2020/12/11 05:32:40;;;;;;;13.95;8.68;;;-1.40;59.80;;;;;;5093558;28;20040;-81
2020/12/11 05:35:19;;;;;;;16.60;9.85;;;-1.30;59.70;;;;;;5108885;28;20502;-79
2020/12/11 05:37:53;;;;;;;16.30;8.80;;;-1.30;59.70;;;;;;5093360;28;20060;-79
2020/12/11 05:40:26;;;;;;;18.92;10.18;;;-1.30;59.70;;;;;;5092747;28;20131;-80
2020/12/11 05:43:21;;;;;;;20.70;10.57;;;-1.30;59.90;;;;;;5093702;28;20085;-80
2020/12/11 05:45:49;;;;;;;20.58;9.52;;;-1.30;59.80;;;;;;5091680;28;20432;-79
2020/12/11 05:48:15;;;;;;;18.80;8.23;;;-1.30;59.90;;;;;;5092768;28;20059;-80
2020/12/11 05:50:41;;;;;;;21.75;9.85;;;-1.30;59.80;;;;;;5093307;28;20487;-81
2020/12/11 05:53:07;;;;;;;20.98;10.82;;;-1.30;59.90;;;;;;5093014;28;20071;-81
2020/12/11 05:55:33;;;;;;;23.20;12.02;;;-1.30;59.70;;;;;;5093055;28;20024;-80
2020/12/11 05:57:59;;;;;;;20.50;10.57;;;-1.30;59.70;;;;;;5095999;28;20040;-80
2020/12/11 06:00:26;;;;;;;18.52;11.15;;;-1.20;59.70;;;;;;5097243;28;20054;-79
2020/12/11 06:02:54;;;;;;;18.73;10.18;;;-1.20;59.70;;;;;;5096921;28;20036;-81
2020/12/11 06:05:23;;;;;;;19.65;10.07;;;-1.20;59.50;;;;;;5095660;28;20050;-81
2020/12/11 06:07:51;;;;;;;17.80;9.50;;;-1.20;59.60;;;;;;5096622;28;20040;-82
2020/12/11 06:10:19;;;;;;;16.90;9.45;;;-1.20;59.60;;;;;;5096919;28;20028;-81
2020/12/11 06:12:45;;;;;;;18.65;9.55;;;-1.10;59.80;;;;;;5082645;28;20032;-80
2020/12/11 06:15:34;;;;;;;21.23;11.30;;;-1.10;60.10;;;;;;5099045;28;20499;-80
2020/12/11 06:18:09;;;;;;;20.02;9.98;;;-1.10;59.50;;;;;;5100132;28;20032;-81
2020/12/11 06:20:36;;;;;;;17.27;10.13;;;-1.10;59.30;;;;;;5098949;28;20079;-80
2020/12/11 06:23:21;;;;;;;22.83;10.15;;;-1.10;59.20;;;;;;5096115;28;20040;-80
2020/12/11 06:25:52;;;;;;;17.88;10.00;;;-1.10;59.00;;;;;;5096412;28;20072;-80
2020/12/11 06:28:44;;;;;;;20.17;10.20;;;-1.10;59.50;;;;;;5096195;28;20032;-81
2020/12/11 06:31:17;;;;;;;22.50;11.35;;;-1.10;59.10;;;;;;5096763;28;20040;-81
2020/12/11 06:33:49;;;;;;;19.45;10.95;;;-1.00;58.90;;;;;;5095475;28;20064;-80
2020/12/11 06:36:16;;;;;;;20.77;10.80;;;-1.00;58.90;;;;;;5096490;28;20487;-81
2020/12/11 06:38:56;;;;;;;17.33;9.93;;;-0.90;58.70;;;;;;5096146;28;20052;-81
2020/12/11 06:41:28;;;;;;;19.52;10.27;;;-0.90;58.70;;;;;;5095208;28;20112;-82
2020/12/11 06:43:58;;;;;;;23.73;10.90;;;-0.90;58.70;;;;;;5095947;28;20028;-80
2020/12/11 06:46:26;;;;;;;19.30;9.98;;;-0.90;58.50;;;;;;5096157;28;20024;-81
2020/12/11 06:49:15;;;;;;;18.40;10.18;;;-0.80;58.60;;;;;;5111417;28;20617;-80
2020/12/11 06:51:46;;;;;;;18.25;10.15;;;-0.80;58.40;;;;;;5095918;28;20035;-81
2020/12/11 06:54:13;;;;;;;20.88;9.65;;;-0.80;58.20;;;;;;5096245;28;20036;-81
2020/12/11 06:56:45;;;;;;;22.80;11.07;;;-0.80;58.20;;;;;;5095695;28;20487;-81
2020/12/11 06:59:31;;;;;;;19.58;10.98;;;-0.70;58.30;;;;;;5112623;28;20048;-81
2020/12/11 07:02:04;;;;;;;22.33;9.85;;;-0.70;58.20;;;;;;5089326;28;20066;-82
2020/12/11 07:04:48;;;;;;;19.02;10.23;;;-0.70;58.20;;;;;;5097368;28;20043;-80
2020/12/11 07:07:14;;;;;;;18.80;10.82;;;-0.60;58.10;;;;;;5095159;28;20085;-78
2020/12/11 07:09:41;;;;;;;20.02;9.88;;;-0.60;58.10;;;;;;5095301;28;20161;-79
2020/12/11 07:12:07;;;;;;;18.35;10.63;;;-0.60;58.10;;;;;;5094031;28;20555;-79
2020/12/11 07:14:33;;;;;;;18.77;10.55;;;-0.50;58.20;;;;;;5095671;28;20123;-77
2020/12/11 07:17:00;;;;;;;19.35;10.25;;;-0.50;58.20;;;;;;5095467;28;20065;-82
2020/12/11 07:19:26;;;;;;;21.15;10.90;;;-0.50;58.30;;;;;;5094846;28;20039;-77
2020/12/11 07:21:54;;;;;;;20.08;10.98;;;-0.50;58.20;;;;;;5094808;28;20028;-80
2020/12/11 07:24:20;;;;;;;20.83;10.02;;;-0.40;58.30;;;;;;5094039;28;20031;-80
2020/12/11 07:26:46;;;;;;;18.27;10.77;;;-0.40;58.40;;;;;;5101654;28;20321;-80
2020/12/11 07:29:16;;;;;;;22.17;11.10;;;-0.40;58.30;;;;;;5093156;28;20197;-81
2020/12/11 07:31:44;;;;;;;22.80;11.45;;;-0.30;58.30;;;;;;5093141;28;20036;-81
2020/12/11 07:34:17;;;;;;;22.50;11.25;;;-0.40;58.70;;;;;;5094747;28;20043;-81
2020/12/11 07:36:47;;;;;;;22.73;11.15;;;-0.40;60.00;;;;;;5094317;28;20147;-79
2020/12/11 07:39:13;;;;;;;20.17;10.70;;;-0.30;61.00;;;;;;5093901;28;20513;-84
2020/12/11 07:41:44;;;;;;;19.85;10.95;;;-0.40;63.20;;;;;;5094653;28;20123;-81
2020/12/11 07:44:26;;;;;;;24.95;11.70;;;-0.30;63.70;;;;;;5094730;28;20028;-87
2020/12/11 07:46:57;;;;;;;23.35;12.13;;;-0.30;63.60;;;;;;5095226;28;20442;-85
2020/12/11 07:49:37;;;;;;;24.13;12.65;;;-0.30;63.80;;;;;;5094704;28;20055;-88
2020/12/11 07:52:04;;;;;;;23.77;12.23;;;-0.20;63.80;;;;;;5095845;28;20377;-89
2020/12/11 07:54:34;;;;;;;20.88;10.15;;;-0.30;63.90;;;;;;5093446;28;20051;-87
2020/12/11 07:57:14;;;;;;;25.40;12.27;;;-0.30;64.00;;;;;;5094882;28;20044;-83
2020/12/11 07:59:42;;;;;;;23.13;12.30;;;-0.30;64.40;;;;;;5110591;28;20040;-86
2020/12/11 08:02:08;;;;;;;24.10;12.57;;;-0.40;64.20;;;;;;5094706;28;20039;-82
2020/12/11 08:04:37;;;;;;;22.25;11.27;;;-0.30;64.30;;;;;;5094110;28;20513;-82
2020/12/11 08:07:03;;;;;;;20.35;11.20;;;-0.30;64.20;;;;;;5076496;28;20043;-83
2020/12/11 08:09:34;;;;;;;21.90;11.95;;;-0.20;64.40;;;;;;5093128;28;20052;-82
2020/12/11 08:12:10;;;;;;;21.42;11.73;;;-0.20;64.30;;;;;;5093205;28;20032;-82
2020/12/11 08:14:39;;;;;;;22.60;11.98;;;-0.20;64.20;;;;;;5109968;28;20503;-78
2020/12/11 08:17:08;;;;;;;26.15;12.63;;;-0.20;64.70;;;;;;5094039;28;20044;-80
2020/12/11 08:19:34;;;;;;;19.45;10.95;;;-0.20;64.90;;;;;;5093587;28;20530;-79
2020/12/11 08:22:13;;;;;;;27.17;12.45;;;-0.20;64.70;;;;;;5094521;28;20036;-78
2020/12/11 08:24:40;;;;;;;23.02;12.65;;;-0.20;64.90;;;;;;5094323;28;20039;-79
2020/12/11 08:27:07;;;;;;;18.08;10.25;;;-0.20;64.90;;;;;;5109532;28;20032;-83
2020/12/11 08:29:32;;;;;;;22.05;11.60;;;-0.10;65.00;;;;;;5092655;28;20148;-83
2020/12/11 08:31:58;;;;;;;22.48;11.57;;;-0.10;64.80;;;;;;5094043;28;20489;-81
2020/12/11 08:34:29;;;;;;;22.02;11.98;;;0.00;64.40;;;;;;5093782;28;20036;-84
2020/12/11 08:37:03;;;;;;;21.52;12.10;;;0.00;63.70;;;;;;5094046;28;20065;-82
2020/12/11 08:39:29;;;;;;;22.85;11.85;;;0.00;63.20;;;;;;5095887;28;20040;-83
2020/12/11 08:42:13;;;;;;;23.77;12.80;;;0.10;63.00;;;;;;5096637;28;20085;-82
2020/12/11 08:50:20;;;;;;;24.05;11.85;;;0.10;62.70;;;;;;5093285;28;20044;-81
2020/12/11 08:52:46;;;;;;;20.83;12.02;;;0.10;62.10;;;;;;5092279;28;20402;-80
2020/12/11 08:55:12;;;;;;;24.52;12.23;;;0.20;62.10;;;;;;5093353;28;20503;-79
2020/12/11 08:57:38;;;;;;;21.02;12.32;;;0.20;61.90;;;;;;5093450;28;20048;-81
2020/12/11 09:00:05;;;;;;;28.05;14.57;;;0.20;62.10;;;;;;5093906;28;20040;-83
2020/12/11 09:02:31;;;;;;;22.15;13.65;;;0.30;62.00;;;;;;5093828;28;20032;-82
2020/12/11 09:04:58;;;;;;;23.23;13.05;;;0.30;61.70;;;;;;5093437;28;20103;-83
2020/12/11 09:07:24;;;;;;;26.23;13.98;;;0.30;61.70;;;;;;5093756;28;20064;-80
2020/12/11 09:09:51;;;;;;;28.30;14.75;;;0.20;61.80;;;;;;5093467;28;20035;-80
2020/12/11 09:12:18;;;;;;;24.15;13.35;;;0.30;61.90;;;;;;5109580;28;20122;-81
2020/12/11 09:14:44;;;;;;;24.92;13.52;;;0.30;62.10;;;;;;5092988;28;20031;-80
2020/12/11 09:17:10;;;;;;;27.52;14.70;;;0.30;62.10;;;;;;5093070;28;20040;-80
2020/12/11 09:19:36;;;;;;;28.02;12.82;;;0.20;62.20;;;;;;5093556;28;20040;-79
2020/12/11 09:22:02;;;;;;;26.05;13.57;;;0.20;62.40;;;;;;5096812;28;20205;-80
2020/12/11 09:24:29;;;;;;;27.33;14.20;;;0.30;62.40;;;;;;5095412;28;20161;-80
2020/12/11 09:26:56;;;;;;;27.65;14.43;;;0.30;62.50;;;;;;5093444;28;20056;-77
2020/12/11 09:31:55;;;;;;;27.13;14.00;;;0.30;62.40;;;;;;5096610;28;20039;-81
2020/12/11 09:34:21;;;;;;;27.40;13.85;;;0.30;62.60;;;;;;5097584;28;20491;-81
2020/12/11 09:36:47;;;;;;;29.73;13.38;;;0.30;62.70;;;;;;5096987;28;20063;-81
2020/12/11 09:39:13;;;;;;;27.95;14.30;;;0.20;62.80;;;;;;5097157;28;20048;-79
2020/12/11 09:41:42;;;;;;;24.95;13.40;;;0.20;63.00;;;;;;5096997;28;20043;-79
2020/12/11 09:44:35;;;;;;;28.17;14.38;;;0.20;63.30;;;;;;5096700;28;20119;-79
2020/12/11 09:49:52;;;;;;;28.73;14.43;;;0.20;63.30;;;;;;5096742;28;20044;-81
2020/12/11 09:54:53;;;;;;;27.80;15.77;;;0.20;63.20;;;;;;5098205;28;20043;-78
2020/12/11 09:57:19;;;;;;;21.08;12.57;;;0.20;63.00;;;;;;5096698;28;20123;-78
2020/12/11 09:59:53;;;;;;;22.80;13.40;;;0.20;63.00;;;;;;5096545;28;20040;-78
2020/12/11 10:04:47;;;;;;;26.08;15.27;;;0.00;63.30;;;;;;5096416;28;20039;-78
2020/12/11 10:07:14;;;;;;;27.95;15.30;;;0.00;63.40;;;;;;5095181;28;20036;-78
2020/12/11 10:09:42;;;;;;;28.33;14.60;;;0.10;63.30;;;;;;5096796;28;20109;-77
2020/12/11 10:12:10;;;;;;;26.15;14.60;;;0.00;63.30;;;;;;5112556;28;20032;-78
2020/12/11 10:14:42;;;;;;;27.30;14.63;;;0.00;63.40;;;;;;5096887;28;20047;-79
2020/12/11 10:17:09;;;;;;;29.05;14.70;;;0.00;63.40;;;;;;5096622;28;20570;-77
2020/12/11 10:19:35;;;;;;;26.65;14.93;;;0.10;63.30;;;;;;5095881;28;20399;-79
2020/12/11 10:22:02;;;;;;;24.52;13.35;;;0.10;63.10;;;;;;5096157;28;20028;-78
2020/12/11 10:24:28;;;;;;;30.10;15.45;;;0.10;63.10;;;;;;5096507;28;20024;-78
2020/12/11 10:26:54;;;;;;;23.42;12.98;;;0.00;63.20;;;;;;5096069;28;20058;-78
2020/12/11 10:29:20;;;;;;;27.40;14.27;;;0.00;63.50;;;;;;5096249;28;20039;-79
2020/12/11 10:31:46;;;;;;;24.95;13.90;;;0.00;63.50;;;;;;5112288;28;20028;-78
2020/12/11 10:34:13;;;;;;;25.67;13.95;;;0.00;63.40;;;;;;5112189;28;20495;-80
2020/12/11 10:36:40;;;;;;;20.55;12.50;;;0.00;63.40;;;;;;5094335;28;20056;-77
2020/12/11 10:39:06;;;;;;;27.80;14.15;;;0.00;63.50;;;;;;5095168;28;20426;-79
2020/12/11 10:41:33;;;;;;;24.08;13.10;;;0.00;63.60;;;;;;5095824;28;20077;-78
2020/12/11 10:43:59;;;;;;;22.80;13.07;;;0.00;63.50;;;;;;5094978;28;20154;-77
2020/12/11 10:46:25;;;;;;;25.85;13.23;;;0.00;63.50;;;;;;5095665;28;20039;-78
2020/12/11 10:48:51;;;;;;;25.98;13.90;;;0.00;63.60;;;;;;5094102;28;20036;-77
2020/12/11 10:51:18;;;;;;;26.27;13.88;;;0.00;63.40;;;;;;5095437;28;20036;-80
2020/12/11 10:53:45;;;;;;;23.77;13.70;;;0.10;63.30;;;;;;5095821;28;20064;-78
2020/12/11 10:56:11;;;;;;;28.17;14.88;;;0.10;63.20;;;;;;5095467;28;20503;-77
2020/12/11 10:58:38;;;;;;;30.65;14.60;;;0.10;63.20;;;;;;5111444;28;20074;-79
2020/12/11 11:01:06;;;;;;;28.42;14.32;;;0.10;63.10;;;;;;5094869;28;20048;-78
2020/12/11 11:03:33;;;;;;;33.05;14.55;;;0.00;63.10;;;;;;5095047;28;20032;-78
2020/12/11 11:06:08;;;;;;;30.38;13.60;;;0.00;63.10;;;;;;5096939;28;20043;-78
2020/12/11 11:08:53;;;;;;;22.33;12.93;;;0.00;63.00;;;;;;5111262;28;20100;-79
2020/12/11 11:11:24;;;;;;;22.95;12.63;;;0.00;62.90;;;;;;5111214;28;20118;-78
2020/12/11 11:29:42;;;;;;;26.10;12.45;;;0.00;61.70;;;;;;5094621;28;20105;-78
2020/12/11 11:32:08;;;;;;;32.42;14.15;;;0.10;61.70;;;;;;5094813;28;20055;-78
2020/12/11 11:34:33;;;;;;;24.80;12.70;;;0.00;61.70;;;;;;5094839;28;20097;-80
2020/12/11 11:36:59;;;;;;;25.48;13.85;;;0.00;61.50;;;;;;5094706;28;20063;-80
2020/12/11 11:39:25;;;;;;;23.63;13.73;;;0.00;61.40;;;;;;5094621;28;20040;-80
2020/12/11 11:41:55;;;;;;;25.17;12.55;;;0.10;61.20;;;;;;5094254;28;20118;-80
2020/12/11 11:46:51;;;;;;;23.90;12.57;;;0.00;61.20;;;;;;5095386;28;20188;-82
2020/12/11 11:54:27;;;;;;;23.35;13.60;;;0.10;60.90;;;;;;5094954;28;20064;-81
2020/12/11 11:56:52;;;;;;;25.50;12.95;;;0.10;60.80;;;;;;5094728;28;20522;-80
2020/12/11 11:59:18;;;;;;;22.70;12.63;;;0.10;60.60;;;;;;5094114;28;20040;-80
2020/12/11 12:01:44;;;;;;;24.60;12.50;;;0.10;60.60;;;;;;5110952;28;20052;-81
2020/12/11 12:04:11;;;;;;;27.50;12.93;;;0.20;60.70;;;;;;5094512;28;20122;-82
2020/12/11 12:06:37;;;;;;;24.10;14.07;;;0.10;60.50;;;;;;5094367;28;20070;-83
2020/12/11 12:09:03;;;;;;;27.38;13.10;;;0.10;60.70;;;;;;5093977;28;20035;-80
2020/12/11 12:11:30;;;;;;;25.63;12.32;;;0.20;60.40;;;;;;5094708;28;20038;-79
2020/12/11 12:13:56;;;;;;;26.63;14.50;;;0.20;60.30;;;;;;5094115;28;20024;-81
2020/12/11 12:16:22;;;;;;;24.58;13.00;;;0.20;60.20;;;;;;5093670;28;20040;-81
2020/12/11 12:18:52;;;;;;;23.58;13.23;;;0.20;60.20;;;;;;5113218;28;20048;-79
2020/12/11 12:21:27;;;;;;;30.10;14.65;;;0.20;60.20;;;;;;5092767;28;20040;-78
2020/12/11 12:29:11;;;;;;;24.52;12.57;;;0.20;59.80;;;;;;5098299;28;20160;-79
2020/12/11 12:31:46;;;;;;;21.17;12.02;;;0.30;59.80;;;;;;5103994;28;20044;-78
2020/12/11 12:44:39;;;;;;;27.70;13.82;;;0.20;59.30;;;;;;5093980;28;20552;-80
2020/12/11 12:47:05;;;;;;;24.92;13.30;;;0.20;59.20;;;;;;5109290;28;20074;-79
2020/12/11 12:49:30;;;;;;;25.23;13.48;;;0.20;59.10;;;;;;5093968;28;20130;-79
2020/12/11 12:51:56;;;;;;;23.45;13.23;;;0.20;59.00;;;;;;5093612;28;20444;-77
2020/12/11 12:54:24;;;;;;;30.73;13.80;;;0.20;59.10;;;;;;5093597;28;20036;-81
2020/12/11 12:56:53;;;;;;;26.20;13.13;;;0.10;58.90;;;;;;5093710;28;20028;-78
2020/12/11 13:07:06;;;;;;;26.60;15.02;;;0.20;59.10;;;;;;5093415;28;20043;-81
2020/12/11 13:09:34;;;;;;;25.73;13.00;;;0.10;59.00;;;;;;5093585;28;20458;-78
2020/12/11 13:12:01;;;;;;;26.80;13.13;;;0.20;59.10;;;;;;5093485;28;20031;-78
2020/12/11 13:14:28;;;;;;;23.83;14.15;;;0.10;58.90;;;;;;5093539;28;20043;-78
2020/12/11 13:16:54;;;;;;;31.95;13.45;;;0.10;59.00;;;;;;5093076;28;20036;-80
2020/12/11 13:19:24;;;;;;;27.67;14.88;;;0.10;59.00;;;;;;5093131;28;20040;-79
2020/12/11 13:27:10;;;;;;;28.13;12.82;;;0.10;59.00;;;;;;5109043;28;20036;-80
2020/12/11 13:29:36;;;;;;;27.02;13.23;;;0.10;59.00;;;;;;5093670;28;20044;-80
2020/12/11 13:32:03;;;;;;;25.90;13.38;;;0.10;59.00;;;;;;5093523;28;20070;-80
2020/12/11 13:34:29;;;;;;;28.10;13.02;;;0.10;59.00;;;;;;5092521;28;20032;-82
2020/12/11 13:36:55;;;;;;;26.27;13.90;;;0.10;58.80;;;;;;5093157;28;20167;-81
2020/12/11 13:39:21;;;;;;;26.15;13.35;;;0.10;58.80;;;;;;5093161;28;20531;-79
2020/12/11 13:41:47;;;;;;;25.45;13.48;;;0.00;58.60;;;;;;5093189;28;20051;-77
2020/12/11 13:44:13;;;;;;;26.70;13.43;;;0.10;59.00;;;;;;5109172;28;20099;-77
2020/12/11 13:46:45;;;;;;;24.35;12.82;;;0.00;58.70;;;;;;5093117;28;20032;-79